Home > Products > Valid Products > TAF

000
FTUS44 KCRP 181100
TAFCRP
TAF
KCRP 181129Z 1812/1912 03007KT P6SM BKN010 OVC025
     FM181500 04015KT P6SM BKN015 OVC030
     FM181900 07012KT P6SM BKN025 OVC250
     FM182100 12014KT P6SM SCT040 BKN250
     FM190500 15007KT P6SM BKN250
     FM191000 VRB03KT 6SM BR SCT001=



000
FTUS44 KCRP 181100
TAFLRD
TAF
KLRD 181129Z 1812/1912 08007KT P6SM OVC011
     FM181600 05009KT P6SM BKN020 OVC030
     FM182100 09012KT P6SM BKN040 OVC250
     FM190400 16007KT P6SM OVC200
     FM191000 14005KT P6SM BKN050 OVC150=



000
FTUS44 KCRP 181100
TAFVCT
TAF
KVCT 181129Z 1812/1912 02006KT P6SM OVC060
     FM181400 02010KT P6SM SCT030 OVC100
      TEMPO 1815/1817 BKN030
     FM181700 02012KT P6SM BKN040
     FM190200 VRB03KT P6SM BKN050
     FM191000 VRB04KT 5SM BR SCT001 BKN050=



000
FTUS44 KCRP 181100
TAFALI
TAF
KALI 181129Z 1812/1912 03008KT P6SM OVC005
     FM181500 04012KT P6SM BKN012 OVC250
     FM181900 06008KT P6SM BKN025 OVC250
     FM182100 12012KT P6SM SCT040 BKN250
     FM190500 15005KT P6SM BKN250
     FM191000 VRB03KT 5SM BR SCT001
      TEMPO 1910/1912 2SM BR=



000
FTUS44 KCRP 180900 AAA
TAFVCT
TAF AMD
KVCT 180922Z 1809/1906 35004KT P6SM SCT025 OVC060
      TEMPO 1810/1813 BKN025 OVC060
     FM181300 02010KT P6SM BKN030 OVC100
     FM181700 02012KT P6SM BKN040
     FM190200 VRB03KT P6SM BKN050=



000
FTUS44 KCRP 180900 AAA
TAFLRD
TAF AMD
KLRD 180916Z 1809/1906 08007KT P6SM OVC009
     FM181600 05009KT P6SM BKN020 OVC030
     FM182100 09012KT P6SM BKN040 OVC250
     FM190400 16007KT P6SM OVC200=



000
FTUS44 KCRP 180900 AAA
TAFCRP
TAF AMD
KCRP 180915Z 1809/1906 04008KT P6SM SCT008 BKN012 OVC025
     FM181500 04015KT P6SM BKN015 OVC030
     FM181900 07012KT P6SM BKN025 OVC250
     FM182100 12014KT P6SM SCT040 BKN250
     FM190500 15007KT P6SM BKN250=



000
FTUS44 KCRP 180900 AAA
TAFALI
TAF AMD
KALI 180909Z 1809/1906 03007KT P6SM BKN006 OVC012
     FM181500 04012KT P6SM BKN012 OVC250
     FM181900 06008KT P6SM BKN025 OVC250
     FM182100 12012KT P6SM SCT040 BKN250
     FM190500 15005KT P6SM BKN250=



000
FTUS44 KCRP 180500
TAFCRP
TAF
KCRP 180539Z 1806/1906 07012KT P6SM -DZ SCT013 OVC035
      TEMPO 1806/1808 6SM -DZ SCT008 BKN013
     FM180800 02005KT 6SM BR OVC004
     FM181500 04015KT P6SM BKN012 OVC250
     FM181900 06010KT P6SM BKN025 OVC250
     FM182100 12014KT P6SM SCT040 BKN250
     FM190500 15007KT P6SM BKN250=



000
FTUS44 KCRP 180500
TAFLRD
TAF
KLRD 180539Z 1806/1906 09014KT P6SM OVC017
     FM180900 05007KT 5SM BR OVC005
     FM181600 05009KT P6SM BKN020 OVC030
     FM182100 09012KT P6SM BKN040 OVC250
     FM190400 16007KT P6SM OVC200=



000
FTUS44 KCRP 180500
TAFVCT
TAF
KVCT 180539Z 1806/1906 02004KT P6SM OVC050
     FM180900 02006KT 5SM BR OVC003
     FM181300 02010KT P6SM BKN008 OVC015
     FM181700 02012KT P6SM BKN040
     FM190200 VRB03KT P6SM BKN050=



000
FTUS44 KCRP 180500
TAFALI
TAF
KALI 180539Z 1806/1906 06007KT 5SM BR BKN006 OVC012
      TEMPO 1806/1808 3SM -RA BR OVC006
     FM180800 02004KT 5SM BR OVC004
     FM181500 04012KT P6SM BKN012 OVC250
     FM181900 06008KT P6SM BKN025 OVC250
     FM182100 12012KT P6SM SCT040 BKN250
     FM190500 15005KT P6SM BKN250=



000
FTUS44 KCRP 180400 AAB
TAFLRD
TAF AMD
KLRD 180401Z 1804/1824 10011KT P6SM BKN020
     FM180600 08008KT P6SM OVC018
     FM180900 05007KT 5SM BR OVC005
     FM181600 07009KT P6SM BKN011 OVC030
     FM181900 11009KT P6SM BKN025 OVC250
     FM182200 13007KT P6SM SCT035 BKN250=



000
FTUS44 KCRP 180300 AAB
TAFCRP
TAF AMD
KCRP 180321Z 1803/1824 07011KT P6SM BKN007 OVC013
      TEMPO 1803/1807 6SM -DZ SCT008 BKN013
     FM180800 04011KT 6SM BR OVC004
     FM181630 06013KT P6SM BKN020 OVC040
     FM182200 10011KT P6SM SCT030 BKN250=



000
FTUS44 KCRP 180300 AAB
TAFVCT
TAF AMD
KVCT 180319Z 1803/1824 08010KT P6SM SCT010 OVC070
      TEMPO 1803/1806 BKN010 OVC070
     FM180600 06007KT 6SM BR OVC010
     FM180900 02006KT 5SM BR OVC003
     FM181400 03008KT P6SM BKN008 OVC015
     FM181800 06008KT P6SM SCT025 BKN050=



000
FTUS44 KCRP 180300 AAA
TAFLRD
TAF AMD
KLRD 180316Z 1803/1824 08011KT P6SM BKN050
     FM180700 08008KT P6SM OVC012
     FM181000 05007KT 6SM BR OVC005
     FM181600 07009KT P6SM BKN011 OVC030
     FM181900 11009KT P6SM BKN025 OVC250
     FM182200 13007KT P6SM SCT035 BKN250=



000
FTUS44 KCRP 180200 AAA
TAFVCT
TAF AMD
KVCT 180212Z 1802/1824 08010KT P6SM OVC015
     FM180500 07007KT 6SM BR OVC009
     FM180800 03006KT 5SM BR OVC005
      TEMPO 1808/1810 2SM BR OVC002
     FM181400 03008KT P6SM BKN008 OVC015
     FM181800 06008KT P6SM SCT025 BKN050=



000
FTUS44 KCRP 180100 AAA
TAFCRP
TAF AMD
KCRP 180159Z 1802/1824 07013G20KT P6SM OVC007
     FM180800 05011KT 6SM BR OVC004
     FM181630 06013KT P6SM BKN020 OVC040
     FM182200 10011KT P6SM SCT030 BKN250=



000
FTUS44 KCRP 172300
TAFCRP
TAF
KCRP 172335Z 1800/1824 11014KT P6SM VCSH OVC010
      TEMPO 1800/1802 SCT010 OVC035
     FM180200 07010KT P6SM OVC007
     FM180800 05011KT 6SM BR OVC004
     FM181630 06013KT P6SM BKN020 OVC040
     FM182200 10011KT P6SM SCT030 BKN250=



000
FTUS44 KCRP 172300
TAFALI
TAF
KALI 172335Z 1800/1824 11011KT P6SM BKN015 OVC025
      TEMPO 1800/1803 SCT015 OVC025
     FM180300 07008KT P6SM OVC008
     FM180800 04007KT 5SM BR OVC004
     FM181600 05010KT P6SM BKN012 OVC040
     FM181900 08009KT P6SM SCT025 BKN250=



000
FTUS44 KCRP 172300
TAFVCT
TAF
KVCT 172335Z 1800/1824 08008KT 5SM BR VCSH BKN015 OVC030
      TEMPO 1800/1802 SCT025 OVC030
     FM180200 06007KT 5SM BR OVC007
     FM180600 03006KT 4SM BR OVC003
      TEMPO 1806/1810 2SM BR OVC002
     FM181400 03008KT P6SM BKN007 OVC015
     FM181800 06008KT P6SM SCT025 BKN050=



000
FTUS44 KCRP 172300
TAFLRD
TAF
KLRD 172335Z 1800/1824 10011KT P6SM BKN050
     FM180500 08008KT P6SM OVC012
     FM180800 05007KT 6SM BR OVC005
     FM181530 07009KT P6SM BKN011 OVC030
     FM181900 11009KT P6SM BKN025 OVC250
     FM182100 13007KT P6SM SCT035 BKN250=



000
FTUS44 KCRP 172200 AAA
TAFVCT
TAF AMD
KVCT 172213Z 1722/1818 06010KT P6SM VCSH BKN015 OVC040
      TEMPO 1722/1802 SCT015 OVC040
     FM180200 06008KT P6SM OVC008
     FM180800 04008KT 5SM BR OVC005
     FM181500 03009KT P6SM OVC015=



000
FTUS44 KCRP 172200 AAA
TAFCRP
TAF AMD
KCRP 172211Z 1722/1818 11014KT P6SM VCSH OVC010
      TEMPO 1722/1802 SCT010 OVC035
     FM180200 09010KT P6SM OVC007
     FM180800 06011G17KT 5SM BR OVC005
     FM181600 04010KT P6SM BKN015=



000
FTUS44 KCRP 171700 RRA
TAFCRP
TAF
KCRP 171743Z 1718/1818 11012KT 4SM -DZ BR BKN015 OVC025
      TEMPO 1718/1719 2SM -DZ BR BKN006
     FM172000 12013KT P6SM VCSH BKN015 BKN035
     FM172200 11016G22KT P6SM VCSH OVC022
     FM180300 09010KT P6SM OVC010
     FM180800 06011G17KT 5SM BR OVC005
     FM181600 04010KT P6SM BKN015=



000
FTUS44 KCRP 171700 RRA
TAFLRD
TAF
KLRD 171743Z 1718/1818 12013KT P6SM SCT030 BKN050
     FM180300 10008KT P6SM OVC025
     FM180800 08008KT P6SM OVC007
     FM181500 08010KT P6SM OVC015=



000
FTUS44 KCRP 171700 RRA
TAFALI
TAF
KALI 171743Z 1718/1818 13009KT P6SM BKN020 OVC040
     FM172200 11014G18KT P6SM OVC022
     FM180300 09010KT P6SM OVC015
     FM180800 06007KT 5SM BR OVC010
     FM181600 05008KT P6SM BKN015=



000
FTUS44 KCRP 171700 RRA
TAFVCT
TAF
KVCT 171743Z 1718/1818 11015KT P6SM OVC035
     FM172200 09010G15KT P6SM VCSH BKN015 OVC040
     FM180300 06008KT P6SM OVC010
     FM180800 04008KT 5SM BR OVC005
     FM181500 03009KT P6SM OVC015=



000
FTUS44 KCRP 171600 AAC
TAFCRP
TAF AMD
KCRP 171612Z 1716/1812 11012KT 4SM -DZ BR BKN015 OVC025
      TEMPO 1716/1718 2SM -DZ BR BKN006
     FM171900 12013KT P6SM VCSH BKN015 BKN035
     FM172200 11016G22KT P6SM VCSH OVC022
     FM180300 09010KT P6SM OVC015
     FM180800 08010KT P6SM BKN012=



000
FTUS44 KCRP 171400 AAB
TAFCRP
TAF AMD
KCRP 171434Z 1715/1812 13012KT P6SM FEW010 BKN025
      TEMPO 1715/1717 3SM -DZ BR BKN015
     FM171700 12013KT P6SM VCSH BKN015 BKN035
     FM172200 11016G22KT P6SM VCSH OVC022
     FM180300 09010KT P6SM OVC015
     FM180800 08010KT P6SM BKN012=



000
FTUS44 KCRP 171300 AAB
TAFALI
TAF AMD
KALI 171340Z 1714/1812 11006KT P6SM SCT008 OVC030
      TEMPO 1714/1716 P6SM BKN015
     FM171600 12011KT P6SM VCSH BKN025 OVC040
     FM172200 11015G20KT P6SM VCSH OVC022
     FM180300 09010KT P6SM OVC015
     FM180800 08010KT P6SM BKN012=



000
FTUS44 KCRP 171100 AAA
TAFVCT
TAF AMD
KVCT 171127Z 1711/1812 12007KT P6SM VCSH FEW035
      TEMPO 1712/1716 BKN030
     FM171600 12010KT P6SM VCSH BKN025 OVC150
     FM172200 11010G15KT P6SM VCSH OVC015
     FM180300 09008KT P6SM OVC010
     FM181000 08007KT P6SM BKN008=



000
FTUS44 KCRP 171100 AAA
TAFCRP
TAF AMD
KCRP 171127Z 1711/1812 13009KT P6SM VCSH FEW028 OVC250
      TEMPO 1712/1716 P6SM BKN025
     FM171600 12013KT P6SM VCSH BKN025 BKN040 OVC250
     FM172200 11016G22KT P6SM VCSH OVC022
     FM180300 09010KT P6SM OVC015
     FM180800 08010KT P6SM BKN012=



000
FTUS44 KCRP 171100 AAA
TAFALI
TAF AMD
KALI 171126Z 1711/1812 11006KT P6SM VCSH FEW030 BKN250
      TEMPO 1712/1716 P6SM BKN030
     FM171600 12011KT P6SM VCSH BKN025 OVC040
     FM172200 11015G20KT P6SM VCSH OVC022
     FM180300 09010KT P6SM OVC015
     FM180800 08010KT P6SM BKN012=



000
FTUS44 KCRP 171100
TAFLRD
TAF
KLRD 171120Z 1712/1812 13011KT P6SM OVC022
      TEMPO 1713/1716 BKN018 OVC025
     FM171900 12010G15KT P6SM SCT025 OVC040
     FM180400 10008KT P6SM OVC025
     FM180700 08008KT P6SM BKN020=



000
FTUS44 KCRP 171100
TAFVCT
TAF
KVCT 171120Z 1712/1812 12007KT P6SM FEW035
      TEMPO 1712/1716 BKN030
     FM171600 12010KT P6SM BKN025 OVC150
     FM172200 11010G15KT P6SM OVC015
     FM180300 09008KT P6SM OVC010
     FM181000 08007KT P6SM BKN008=



000
FTUS44 KCRP 171100
TAFCRP
TAF
KCRP 171120Z 1712/1812 13009KT P6SM FEW028 OVC250
      TEMPO 1712/1716 P6SM BKN025
     FM171600 12013KT P6SM BKN025 BKN040 OVC250
     FM172200 11016G22KT P6SM OVC022
     FM180300 09010KT P6SM OVC015
     FM180800 08010KT P6SM BKN012=



000
FTUS44 KCRP 171100
TAFALI
TAF
KALI 171120Z 1712/1812 11006KT P6SM FEW030 BKN250
      TEMPO 1712/1716 P6SM BKN030
     FM171600 12011KT P6SM BKN025 OVC040
     FM172200 11015G20KT P6SM OVC022
     FM180300 09010KT P6SM OVC015
     FM180800 08010KT P6SM BKN012=



000
FTUS44 KCRP 170900 AAA
TAFVCT
TAF AMD
KVCT 170921Z 1709/1806 12007KT P6SM FEW035
      TEMPO 1712/1716 BKN030
     FM171600 12010KT P6SM BKN025 OVC150
     FM172200 11010G15KT P6SM OVC015
     FM180300 09008KT P6SM OVC010=



000
FTUS44 KCRP 170900 AAA
TAFALI
TAF AMD
KALI 170920Z 1709/1806 11006KT P6SM FEW030 BKN250
      TEMPO 1712/1716 P6SM BKN030
     FM171600 12011KT P6SM BKN025 OVC040
     FM172200 11015G20KT P6SM OVC022
     FM180300 09010KT P6SM OVC015=



000
FTUS44 KCRP 170900 AAA
TAFCRP
TAF AMD
KCRP 170919Z 1709/1806 13009KT P6SM FEW028 OVC250
      TEMPO 1712/1716 P6SM BKN025
     FM171600 12013KT P6SM BKN025 BKN040 OVC250
     FM172200 11016G22KT P6SM OVC022
     FM180300 09010KT P6SM OVC012=



000
FTUS44 KCRP 170500
TAFVCT
TAF
KVCT 170521Z 1706/1806 10008KT P6SM FEW045
      TEMPO 1706/1708 P6SM BKN020
     FM170800 12007KT P6SM OVC015
     FM171600 12010KT P6SM BKN025 OVC150
     FM172200 11010G15KT P6SM OVC015
     FM180300 09008KT P6SM OVC010=



000
FTUS44 KCRP 170500
TAFCRP
TAF
KCRP 170521Z 1706/1806 14010KT P6SM SCT020 BKN250
      TEMPO 1706/1708 BKN020
     FM170800 13009KT P6SM OVC015
     FM171600 12013KT P6SM BKN025 OVC040
     FM172200 11016G22KT P6SM OVC019
     FM180300 09010KT P6SM OVC012=



000
FTUS44 KCRP 170500
TAFALI
TAF
KALI 170521Z 1706/1806 13008KT P6SM SCT020 BKN250
      TEMPO 1706/1708 BKN020
     FM170800 12006KT P6SM OVC015
     FM171600 13011KT P6SM BKN025 OVC040
     FM172200 11015G20KT P6SM OVC022
     FM180300 09010KT P6SM OVC015=



000
FTUS44 KCRP 170500
TAFLRD
TAF
KLRD 170521Z 1706/1806 14013KT P6SM FEW030 BKN200 WS020/15035KT
     FM171000 13011KT P6SM OVC022
      TEMPO 1713/1716 BKN018 OVC025
     FM171900 12010G15KT P6SM SCT025 OVC040
     FM180400 10008KT P6SM OVC025=



000
FTUS44 KCRP 170300 AAA
TAFALI
TAF AMD
KALI 170333Z 1704/1724 13008KT P6SM SCT020 BKN250
      TEMPO 1706/1708 BKN022
     FM170800 13006KT P6SM OVC015
     FM171600 13011KT P6SM BKN025 OVC040
     FM172200 11015G20KT P6SM OVC022=



000
FTUS44 KCRP 170300 AAA
TAFVCT
TAF AMD
KVCT 170333Z 1704/1724 13010KT P6SM BKN045
     FM170800 12007KT P6SM OVC015
     FM171600 12010KT P6SM BKN025 OVC150
     FM172200 11010KT P6SM OVC015=



000
FTUS44 KCRP 170300 AAA
TAFCRP
TAF AMD
KCRP 170332Z 1704/1724 13010KT P6SM SCT020 BKN250
      TEMPO 1705/1707 BKN020
     FM170700 13009KT P6SM OVC015
     FM171600 12013KT P6SM BKN025 OVC040
     FM172200 11016G22KT P6SM OVC019=



000
FTUS44 KCRP 162300
TAFVCT
TAF
KVCT 162330Z 1700/1724 13013KT P6SM BKN045
     FM170600 12007KT P6SM OVC015
     FM171600 12010KT P6SM BKN025 OVC150
     FM172200 11010KT P6SM OVC015=



000
FTUS44 KCRP 162300
TAFLRD
TAF
KLRD 162330Z 1700/1724 13014G18KT P6SM FEW040 BKN200
     FM170300 14013KT P6SM FEW030 BKN200
     FM171000 15011KT P6SM OVC022
      TEMPO 1713/1716 BKN018 OVC025
     FM171900 12010KT P6SM SCT025 OVC040=



000
FTUS44 KCRP 162300
TAFALI
TAF
KALI 162330Z 1700/1724 14013G17KT P6SM FEW035 BKN250
     FM170200 13008KT P6SM SCT022 BKN250
      TEMPO 1704/1707 BKN022
     FM170700 13006KT P6SM OVC015
     FM171600 13011KT P6SM BKN025 OVC040
     FM172200 11015G20KT P6SM OVC022=



000
FTUS44 KCRP 162300
TAFCRP
TAF
KCRP 162330Z 1700/1724 13013G19KT P6SM SCT025 BKN045
     FM170300 13010KT P6SM BKN025
     FM170800 13010KT P6SM OVC015
     FM171600 12013KT P6SM BKN025 OVC040
     FM172200 11016G22KT P6SM OVC019=



000
FTUS44 KCRP 161700 AAA
TAFALI
TAF AMD
KALI 161800Z 1618/1718 14009G18KT P6SM FEW035
     FM170300 13010KT P6SM BKN030
     FM170800 14008KT P6SM BKN015
      TEMPO 1708/1712 3SM BR=



000
FTUS44 KCRP 161700 AAA
TAFVCT
TAF AMD
KVCT 161759Z 1618/1718 15014G20KT P6SM FEW040
     FM170700 12007KT P6SM OVC015
      TEMPO 1708/1712 3SM BR=



000
FTUS44 KCRP 161700
TAFVCT
TAF
KVCT 161721Z 1618/1718 15014KT P6SM FEW040
     FM170700 12007KT P6SM OVC015
      TEMPO 1708/1712 3SM BR=



000
FTUS44 KCRP 161700
TAFCRP
TAF
KCRP 161721Z 1618/1718 13013G20KT P6SM SCT040
     FM170300 13010KT P6SM BKN030
     FM170800 13008KT P6SM BKN015
      TEMPO 1708/1712 3SM BR=



000
FTUS44 KCRP 161700
TAFALI
TAF
KALI 161721Z 1618/1718 13009G18KT P6SM FEW035
     FM170300 13010KT P6SM BKN030
     FM170800 14008KT P6SM BKN015
      TEMPO 1708/1712 3SM BR=



000
FTUS44 KCRP 161700
TAFLRD
TAF
KLRD 161721Z 1618/1718 14014KT P6SM FEW050
     FM171000 14011KT P6SM OVC030
     FM171300 13010KT P6SM OVC015
     FM171600 15012KT P6SM OVC025=



000
FTUS44 KCRP 161100
TAFVCT
TAF
KVCT 161120Z 1612/1712 09005KT P6SM SKC
     FM161600 13012KT P6SM FEW030 BKN250
     FM161800 13015G20KT P6SM SCT040 OVC250
     FM170300 13010KT P6SM SCT030 OVC250
     FM170800 12007KT P6SM BKN015
      TEMPO 1708/1712 3SM BR=



000
FTUS44 KCRP 161100
TAFLRD
TAF
KLRD 161120Z 1612/1712 14007KT P6SM SCT250
     FM161500 16012G18KT P6SM SCT250
     FM162000 16015G20KT P6SM FEW050 BKN250
     FM170400 16010KT P6SM BKN250=



000
FTUS44 KCRP 161100
TAFCRP
TAF
KCRP 161120Z 1612/1712 12007KT P6SM SKC
     FM161500 13012KT P6SM FEW030
     FM161700 13018G25KT P6SM SCT035 BKN250
     FM170300 13010KT P6SM SCT030 OVC250
     FM170800 13010KT P6SM BKN015
      TEMPO 1708/1712 3SM BR=



000
FTUS44 KCRP 161100
TAFALI
TAF
KALI 161120Z 1612/1712 15004KT P6SM SKC
     FM161600 14012KT P6SM FEW035
     FM161800 13015G20KT P6SM FEW040 OVC250
     FM170300 13010KT P6SM SCT030 OVC250
     FM170800 14008KT P6SM BKN015
      TEMPO 1708/1712 3SM BR=



000
FTUS44 KCRP 160500
TAFLRD
TAF
KLRD 160520Z 1606/1706 12007KT P6SM SCT250
     FM161500 16012G18KT P6SM SCT250
     FM162000 16015G20KT P6SM FEW050 BKN250
     FM170400 16010KT P6SM BKN250=



000
FTUS44 KCRP 160500
TAFVCT
TAF
KVCT 160520Z 1606/1706 VRB05KT P6SM SKC
     FM161600 13012KT P6SM SCT035 BKN250
     FM161800 13015G20KT P6SM BKN040 OVC250
     FM170300 13010KT P6SM BKN030 OVC250=



000
FTUS44 KCRP 160500
TAFCRP
TAF
KCRP 160520Z 1606/1706 10005KT P6SM SKC
     FM161500 13012KT P6SM SCT030
     FM161700 13018G25KT P6SM SCT035 BKN250
     FM170300 13010KT P6SM SCT030 OVC250=



000
FTUS44 KCRP 160500
TAFALI
TAF
KALI 160520Z 1606/1706 15006KT P6SM SKC
     FM161500 14012KT P6SM FEW035
     FM161800 13015G20KT P6SM FEW040 OVC250
     FM170300 13010KT P6SM SCT030 OVC250=



000
FTUS44 KCRP 152300
TAFCRP
TAF
KCRP 152327Z 1600/1624 01009KT P6SM SKC
     FM160300 10005KT P6SM SKC
     FM161500 13012KT P6SM SCT030
     FM161700 13018G25KT P6SM SCT035 BKN250=



000
FTUS44 KCRP 152300
TAFLRD
TAF
KLRD 152327Z 1600/1624 VRB03KT P6SM SKC
     FM160400 12007KT P6SM SCT250
     FM162000 16015G20KT P6SM SCT050 BKN250=



000
FTUS44 KCRP 152300
TAFVCT
TAF
KVCT 152327Z 1600/1624 04005KT P6SM SKC
      TEMPO 1610/1613 5SM BR
     FM161600 13012KT P6SM SCT035 BKN250
     FM161800 13015G20KT P6SM BKN040 OVC250=



000
FTUS44 KCRP 152300
TAFALI
TAF
KALI 152327Z 1600/1624 02008KT P6SM SKC
     FM160300 11004KT P6SM SKC
     FM161500 14012KT P6SM SCT035
     FM161800 13015G20KT P6SM BKN040 OVC250=



000
FTUS44 KCRP 151700
TAFVCT
TAF
KVCT 151725Z 1518/1618 03012KT P6SM SKC
     FM152300 07008KT P6SM SKC
     FM160300 14005KT P6SM SKC
     FM161600 14012KT P6SM FEW035=



000
FTUS44 KCRP 151700
TAFALI
TAF
KALI 151725Z 1518/1618 02010KT P6SM SKC
     FM152200 06008KT P6SM SKC
     FM160300 13005KT P6SM SKC
     FM161500 13010KT P6SM SCT040=



000
FTUS44 KCRP 151700
TAFLRD
TAF
KLRD 151725Z 1518/1618 VRB05KT P6SM SKC
     FM152100 09007KT P6SM SKC
     FM160300 12009KT P6SM SKC
     FM161600 16015KT P6SM SKC=



000
FTUS44 KCRP 151700
TAFCRP
TAF
KCRP 151725Z 1518/1618 04010KT P6SM SKC
     FM152300 07010KT P6SM SKC
     FM160300 12007KT P6SM SKC
     FM161500 13013G17KT P6SM SCT035=



    US Dept of Commerce
    National Oceanic and Atmospheric Administration
    National Weather Service
    1325 East West Highway
    Silver Spring, MD 20910
    Page Author: NWS Internet Services Team
Disclaimer
Information Quality
Credits
Glossary
Privacy Policy
Freedom of Information Act (FOIA)
About Us
Career Opportunities